createdAt,value
2019-02-18T00:01:58.629Z,85.53
2019-02-18T00:04:28.299Z,87.22
2019-02-18T00:06:58.016Z,81.78
2019-02-18T00:09:27.651Z,85.25
2019-02-18T00:11:57.469Z,85.90
2019-02-18T00:14:27.139Z,81.30
2019-02-18T00:16:56.863Z,82.57
2019-02-18T00:19:26.551Z,85.77
2019-02-18T00:21:56.272Z,83.22
2019-02-18T00:24:25.957Z,85.32
2019-02-18T00:26:56.622Z,81.87
2019-02-18T00:29:26.355Z,80.85
2019-02-18T00:31:56.100Z,84.80
2019-02-18T00:34:25.788Z,74.82
2019-02-18T00:36:55.479Z,77.85
2019-02-18T00:39:25.165Z,74.97
2019-02-18T00:41:54.883Z,72.53
2019-02-18T00:44:24.678Z,63.35
2019-02-18T00:46:54.475Z,62.13
2019-02-18T00:49:24.121Z,62.40
2019-02-18T00:51:53.795Z,69.15
2019-02-18T00:54:23.506Z,63.15
2019-02-18T00:56:53.143Z,66.47
2019-02-18T00:59:22.932Z,56.65
2019-02-18T01:01:52.632Z,56.20
2019-02-18T01:04:22.330Z,57.60
2019-02-18T01:06:53.220Z,53.08
2019-02-18T01:09:26.013Z,52.65
2019-02-18T01:11:55.722Z,57.67
2019-02-18T01:14:25.515Z,59.60
2019-02-18T01:16:55.238Z,57.60
2019-02-18T01:19:24.960Z,58.68
2019-02-18T01:21:54.695Z,55.12
2019-02-18T01:24:24.540Z,58.75
2019-02-18T01:26:54.330Z,62.00
2019-02-18T01:29:24.227Z,63.38
2019-02-18T01:31:53.898Z,58.25
2019-02-18T01:34:26.470Z,57.93
2019-02-18T01:36:56.193Z,59.93
2019-02-18T01:39:25.884Z,63.50
2019-02-18T01:41:55.542Z,61.88
2019-02-18T01:44:25.232Z,63.35
2019-02-18T01:46:54.924Z,68.60
2019-02-18T01:49:24.898Z,66.37
2019-02-18T01:51:54.622Z,68.22
2019-02-18T01:54:24.601Z,67.35
2019-02-18T01:56:54.281Z,73.67
2019-02-18T01:59:23.987Z,68.07
2019-02-18T02:01:53.742Z,70.37
2019-02-18T02:04:23.437Z,73.07
2019-02-18T02:06:53.114Z,70.85
2019-02-18T02:09:22.859Z,77.42
2019-02-18T02:11:52.494Z,74.65
2019-02-18T02:14:22.207Z,82.40
2019-02-18T02:16:51.885Z,87.70
2019-02-18T02:19:21.710Z,78.07
2019-02-18T02:21:51.368Z,79.22
2019-02-18T02:24:21.189Z,77.85
2019-02-18T02:26:50.843Z,82.05
2019-02-18T02:29:20.650Z,83.58
2019-02-18T02:31:50.569Z,85.95
2019-02-18T02:34:20.361Z,88.82
2019-02-18T02:36:50.059Z,85.65
2019-02-18T02:39:19.770Z,81.63
2019-02-18T02:41:52.219Z,84.60
2019-02-18T02:44:21.922Z,78.65
2019-02-18T02:46:51.584Z,82.92
2019-02-18T02:49:21.271Z,80.53
2019-02-18T02:51:50.976Z,80.10
2019-02-18T02:54:20.715Z,78.92
2019-02-18T02:56:50.419Z,76.40
2019-02-18T02:59:20.171Z,77.82
2019-02-18T03:01:50.013Z,78.97
2019-02-18T03:04:19.727Z,79.12
2019-02-18T03:06:49.423Z,76.70
2019-02-18T03:09:19.119Z,70.78
2019-02-18T03:11:48.852Z,81.75
2019-02-18T03:14:18.516Z,78.95
2019-02-18T03:16:48.366Z,72.40
2019-02-18T03:19:18.056Z,75.20
2019-02-18T03:21:47.740Z,76.10
2019-02-18T03:24:17.404Z,74.32
2019-02-18T03:26:47.082Z,77.37
2019-02-18T03:29:56.076Z,76.45
2019-02-18T03:32:25.819Z,71.45
2019-02-18T03:34:55.502Z,79.67
2019-02-18T03:37:25.276Z,75.10
2019-02-18T03:39:54.990Z,77.27
2019-02-18T03:42:24.730Z,75.60
2019-02-18T03:44:54.492Z,79.75
2019-02-18T03:47:24.211Z,76.07
2019-02-18T03:49:54.043Z,79.32
2019-02-18T03:52:23.744Z,74.45
2019-02-18T03:54:53.652Z,76.10
2019-02-18T03:57:23.575Z,78.17
2019-02-18T03:59:53.428Z,76.90
2019-02-18T04:02:23.304Z,79.67
2019-02-18T04:04:53.114Z,79.90
2019-02-18T04:07:22.825Z,84.05
2019-02-18T04:09:52.665Z,82.95
2019-02-18T04:12:22.461Z,84.35
2019-02-18T04:14:52.162Z,88.58
2019-02-18T04:17:21.869Z,82.55
2019-02-18T04:19:52.355Z,87.17
2019-02-18T04:22:22.309Z,90.28
2019-02-18T04:24:52.065Z,84.07
2019-02-18T04:27:21.867Z,82.27
2019-02-18T04:29:51.580Z,83.65
2019-02-18T04:32:21.353Z,81.08
2019-02-18T04:34:51.056Z,82.22
2019-02-18T04:37:20.803Z,87.88
2019-02-18T04:39:50.906Z,89.58
2019-02-18T04:42:20.809Z,80.50
2019-02-18T04:44:50.530Z,80.03
2019-02-18T04:47:20.269Z,78.92
2019-02-18T04:49:50.017Z,84.03
2019-02-18T04:52:19.727Z,77.70
2019-02-18T04:54:49.460Z,80.15
2019-02-18T04:57:19.185Z,83.55
2019-02-18T04:59:48.888Z,79.85
2019-02-18T05:02:18.661Z,79.37
2019-02-18T05:04:48.470Z,79.77
2019-02-18T05:07:18.187Z,78.70
2019-02-18T05:09:47.934Z,78.50
2019-02-18T05:12:17.658Z,81.17
2019-02-18T05:14:47.370Z,83.70
2019-02-18T05:17:17.017Z,90.92
2019-02-18T05:19:46.743Z,83.75
2019-02-18T05:22:16.454Z,83.82
2019-02-18T05:24:46.214Z,84.50
2019-02-18T05:27:16.077Z,79.37
2019-02-18T05:29:45.862Z,77.97
2019-02-18T05:32:15.551Z,80.10
2019-02-18T05:34:45.302Z,79.42
2019-02-18T05:37:14.964Z,84.25
2019-02-18T05:39:44.669Z,77.62
2019-02-18T05:42:14.432Z,79.45
2019-02-18T05:44:44.131Z,78.62
2019-02-18T05:47:13.825Z,74.82
2019-02-18T05:49:43.619Z,80.55
2019-02-18T05:52:13.305Z,78.97
2019-02-18T05:54:43.022Z,76.28
2019-02-18T05:57:12.708Z,77.35
2019-02-18T05:59:42.502Z,77.12
2019-02-18T06:02:13.260Z,78.87
2019-02-18T06:04:44.144Z,75.52
2019-02-18T06:07:13.903Z,78.62
2019-02-18T06:09:43.677Z,85.00
2019-02-18T06:12:13.397Z,80.03
2019-02-18T06:14:43.167Z,76.90
2019-02-18T06:17:12.939Z,74.67
2019-02-18T06:19:42.923Z,77.15
2019-02-18T06:22:12.695Z,79.70
2019-02-18T06:24:42.432Z,86.10
2019-02-18T06:27:12.151Z,77.87
2019-02-18T06:29:41.970Z,77.22
2019-02-18T06:32:11.705Z,75.10
2019-02-18T06:34:41.472Z,78.42
2019-02-18T06:37:11.137Z,76.77
2019-02-18T06:39:42.032Z,73.20
2019-02-18T06:42:12.001Z,77.08
2019-02-18T06:44:50.178Z,85.47
2019-02-18T06:47:25.205Z,72.82
2019-02-18T06:49:54.774Z,68.85
2019-02-18T06:52:24.435Z,78.92
2019-02-18T06:54:54.137Z,75.12
2019-02-18T06:57:32.423Z,73.33
2019-02-18T07:00:07.994Z,76.60
2019-02-18T07:03:02.852Z,69.80
2019-02-18T07:06:06.676Z,72.55
2019-02-18T07:08:56.190Z,73.37
2019-02-18T07:11:39.649Z,69.92
2019-02-18T07:14:09.355Z,69.12
2019-02-18T07:16:39.035Z,64.80
2019-02-18T07:19:08.729Z,74.12
2019-02-18T07:21:38.443Z,67.12
2019-02-18T07:24:08.111Z,63.20
2019-02-18T07:26:39.889Z,68.40
2019-02-18T07:29:09.547Z,61.68
2019-02-18T07:31:39.270Z,59.85
2019-02-18T07:34:08.968Z,65.52
2019-02-18T07:36:38.800Z,59.45
2019-02-18T07:39:09.083Z,60.40
2019-02-18T07:41:41.243Z,58.45
2019-02-18T07:44:10.922Z,58.28
2019-02-18T07:46:40.642Z,58.35
2019-02-18T07:49:10.338Z,56.88
2019-02-18T07:51:42.103Z,56.30
2019-02-18T07:54:11.877Z,51.88
2019-02-18T07:56:41.622Z,57.75
2019-02-18T07:59:11.304Z,54.18
2019-02-18T08:01:41.110Z,54.35
2019-02-18T08:04:10.766Z,55.90
2019-02-18T08:06:40.510Z,55.40
2019-02-18T08:09:10.272Z,57.05
2019-02-18T08:11:39.998Z,55.85
2019-02-18T08:14:16.304Z,56.40
2019-02-18T08:16:46.148Z,58.10
2019-02-18T08:19:15.871Z,54.53
2019-02-18T08:21:45.694Z,55.03
2019-02-18T08:24:15.464Z,53.85
2019-02-18T08:26:45.183Z,52.17
2019-02-18T08:29:16.305Z,51.13
2019-02-18T08:31:47.805Z,56.88
2019-02-18T08:34:17.959Z,55.98
2019-02-18T08:36:47.676Z,57.10
2019-02-18T08:39:17.483Z,58.58
2019-02-18T08:41:49.254Z,59.05
2019-02-18T08:44:18.992Z,60.83
2019-02-18T08:46:48.793Z,53.38
2019-02-18T08:49:18.607Z,53.33
2019-02-18T08:51:48.339Z,47.93
2019-02-18T08:54:18.141Z,49.00
2019-02-18T08:56:48.020Z,50.30
2019-02-18T08:59:17.731Z,50.58
2019-02-18T09:01:47.544Z,53.58
2019-02-18T09:04:17.356Z,53.20
2019-02-18T09:06:47.068Z,52.13
2019-02-18T09:09:16.915Z,51.48
2019-02-18T09:11:46.590Z,51.55
2019-02-18T09:14:16.351Z,50.55
2019-02-18T09:16:46.127Z,51.33
2019-02-18T09:19:15.866Z,52.20
2019-02-18T09:21:46.113Z,50.88
2019-02-18T09:24:20.574Z,49.00
2019-02-18T09:26:50.258Z,48.23
2019-02-18T09:29:22.337Z,48.30
2019-02-18T09:31:52.139Z,49.70
2019-02-18T09:34:21.878Z,54.30
2019-02-18T09:36:51.635Z,49.45
2019-02-18T09:39:30.564Z,52.00
2019-02-18T09:41:53.655Z,52.48
2019-02-18T09:47:55.019Z,52.38
2019-02-18T09:50:24.750Z,53.80
2019-02-18T09:52:54.476Z,57.60
2019-02-18T09:55:24.190Z,48.90
2019-02-18T09:57:53.933Z,49.08
2019-02-18T10:00:23.654Z,57.88
2019-02-18T10:02:53.355Z,46.77
2019-02-18T10:05:25.873Z,47.60
2019-02-18T10:07:55.533Z,49.93
2019-02-18T10:10:25.288Z,59.63
2019-02-18T10:12:55.113Z,52.15
2019-02-18T10:15:24.847Z,45.12
2019-02-18T10:17:54.526Z,47.55
2019-02-18T10:20:24.240Z,50.55
2019-02-18T10:22:53.967Z,42.50
2019-02-18T10:25:23.707Z,43.58
2019-02-18T10:27:53.590Z,43.38
2019-02-18T10:30:23.411Z,47.50
2019-02-18T10:32:53.170Z,45.65
2019-02-18T10:35:22.933Z,42.90
2019-02-18T10:37:55.125Z,36.35
2019-02-18T10:40:25.301Z,35.48
2019-02-18T10:42:54.951Z,38.78
2019-02-18T10:45:24.652Z,34.13
2019-02-18T10:47:54.332Z,33.23
2019-02-18T10:50:24.150Z,30.00
2019-02-18T10:52:53.847Z,31.82
2019-02-18T10:55:23.856Z,30.20
2019-02-18T10:57:55.632Z,31.50
2019-02-18T11:00:25.553Z,29.52
2019-02-18T11:02:55.425Z,30.50
2019-02-18T11:05:25.125Z,26.97
2019-02-18T11:07:55.189Z,30.77
2019-02-18T11:10:24.957Z,26.73
2019-02-18T11:12:54.617Z,27.30
2019-02-18T11:15:24.379Z,25.23
2019-02-18T11:17:54.143Z,28.65
2019-02-18T11:20:27.906Z,25.70
2019-02-18T11:22:57.576Z,26.20
2019-02-18T11:25:27.291Z,22.98
2019-02-18T11:27:57.023Z,24.35
2019-02-18T11:30:26.735Z,23.92
2019-02-18T11:32:56.521Z,24.18
2019-02-18T11:35:26.226Z,21.35
2019-02-18T11:37:55.966Z,21.52
2019-02-18T11:40:25.632Z,19.40
2019-02-18T11:42:55.744Z,19.23
2019-02-18T11:45:25.485Z,22.40
2019-02-18T11:47:55.203Z,20.40
2019-02-18T11:50:24.838Z,22.37
2019-02-18T11:52:54.608Z,23.10
2019-02-18T11:55:24.491Z,27.30
2019-02-18T11:57:54.253Z,25.10
2019-02-18T12:00:23.926Z,27.25
2019-02-18T12:03:02.789Z,25.57
2019-02-18T12:05:27.011Z,26.57
2019-02-18T12:07:56.727Z,24.65
2019-02-18T12:10:26.604Z,23.52
2019-02-18T12:12:56.514Z,24.43
2019-02-18T12:15:26.192Z,23.30
2019-02-18T12:17:55.962Z,22.62
2019-02-18T12:20:25.643Z,21.40
2019-02-18T12:22:55.612Z,23.25
2019-02-18T12:25:25.636Z,19.90
2019-02-18T12:27:55.351Z,21.12
2019-02-18T12:30:25.004Z,19.95
2019-02-18T12:32:56.028Z,21.80
2019-02-18T12:35:31.078Z,20.35
2019-02-18T12:37:57.193Z,22.00
2019-02-18T12:40:26.858Z,17.60
2019-02-18T12:42:56.561Z,17.52
2019-02-18T12:45:26.207Z,18.12
2019-02-18T12:47:55.891Z,17.48
2019-02-18T12:50:25.651Z,18.70
2019-02-18T12:52:55.837Z,14.85
2019-02-18T12:55:25.865Z,14.73
2019-02-18T12:57:55.829Z,13.75
2019-02-18T13:00:25.668Z,14.50
2019-02-18T13:02:55.401Z,12.78
2019-02-18T13:05:25.144Z,13.95
2019-02-18T13:07:54.977Z,15.30
2019-02-18T13:10:34.500Z,13.03
2019-02-18T13:12:56.296Z,12.65
2019-02-18T13:15:25.965Z,14.83
2019-02-18T13:17:55.760Z,15.75
2019-02-18T13:20:25.589Z,16.20
2019-02-18T13:22:55.418Z,14.47
2019-02-18T13:25:25.080Z,17.35
2019-02-18T13:27:54.815Z,15.45
2019-02-18T13:30:24.531Z,18.80
2019-02-18T13:32:54.201Z,17.10
2019-02-18T13:35:23.935Z,18.80
2019-02-18T13:37:53.648Z,17.75
2019-02-18T13:40:23.445Z,18.52
2019-02-18T13:42:53.137Z,20.40
2019-02-18T13:45:22.854Z,18.62
2019-02-18T13:47:52.719Z,17.25
2019-02-18T13:50:22.426Z,18.20
2019-02-18T13:52:52.181Z,19.27
2019-02-18T13:55:22.386Z,15.75
2019-02-18T13:57:52.195Z,17.85
2019-02-18T14:00:22.059Z,20.70
2019-02-18T14:02:52.155Z,16.93
2019-02-18T14:05:22.234Z,14.10
2019-02-18T14:07:51.936Z,15.00
2019-02-18T14:10:22.323Z,15.85
2019-02-18T14:12:52.127Z,16.60
2019-02-18T14:15:22.028Z,16.80
2019-02-18T14:17:51.750Z,17.73
2019-02-18T14:20:21.655Z,20.77
2019-02-18T14:22:51.377Z,20.60
2019-02-18T14:25:21.120Z,17.67
2019-02-18T14:27:50.845Z,19.10
2019-02-18T14:30:20.777Z,19.95
2019-02-18T14:32:50.442Z,17.77
2019-02-18T14:35:20.328Z,18.55
2019-02-18T14:37:51.062Z,18.07
2019-02-18T14:40:21.567Z,16.25
2019-02-18T14:42:51.604Z,15.72
2019-02-18T14:45:21.327Z,15.93
2019-02-18T14:47:53.840Z,15.45
2019-02-18T14:50:23.739Z,14.20
2019-02-18T14:52:55.550Z,14.90
2019-02-18T14:55:25.378Z,15.08
2019-02-18T14:57:55.166Z,13.68
2019-02-18T15:00:26.381Z,13.75
2019-02-18T15:02:57.704Z,16.20
2019-02-18T15:05:27.927Z,13.98
2019-02-18T15:07:57.604Z,15.15
2019-02-18T15:10:27.268Z,14.23
2019-02-18T15:12:56.967Z,15.10
2019-02-18T15:15:26.659Z,16.30
2019-02-18T15:17:58.448Z,15.63
2019-02-18T15:20:28.151Z,17.70
2019-02-18T15:22:57.959Z,18.48
2019-02-18T15:25:27.653Z,20.57
2019-02-18T15:27:57.396Z,16.97
2019-02-18T15:30:27.120Z,20.92
2019-02-18T15:32:57.287Z,18.12
2019-02-18T15:35:27.059Z,18.52
2019-02-18T15:37:56.799Z,18.37
2019-02-18T15:40:26.456Z,17.52
2019-02-18T15:42:58.436Z,19.07
2019-02-18T15:45:28.260Z,19.42
2019-02-18T15:48:01.677Z,20.15
2019-02-18T15:50:30.860Z,19.35
2019-02-18T15:53:00.591Z,18.23
2019-02-18T15:55:30.875Z,18.70
2019-02-18T15:58:00.627Z,20.55
2019-02-18T16:00:30.872Z,21.27
2019-02-18T16:03:01.892Z,20.40
2019-02-18T16:05:31.624Z,19.60
2019-02-18T16:08:01.406Z,21.10
2019-02-18T16:10:31.279Z,20.25
2019-02-18T16:13:01.077Z,20.72
2019-02-18T16:15:31.000Z,19.75
2019-02-18T16:18:00.693Z,20.57
2019-02-18T16:20:30.429Z,23.07
2019-02-18T16:23:00.115Z,21.73
2019-02-18T16:25:29.872Z,20.90
2019-02-18T16:27:59.595Z,22.05
2019-02-18T16:30:29.470Z,23.35
2019-02-18T16:32:59.370Z,21.33
2019-02-18T16:35:29.560Z,20.40
2019-02-18T16:37:59.308Z,20.85
2019-02-18T16:40:29.956Z,23.75
2019-02-18T16:42:59.762Z,22.13
2019-02-18T16:45:29.929Z,22.13
2019-02-18T16:48:01.333Z,21.93
2019-02-18T16:50:31.230Z,21.77
2019-02-18T16:53:01.215Z,20.77
2019-02-18T16:55:30.928Z,21.75
2019-02-18T16:58:00.671Z,19.23
2019-02-18T17:00:32.914Z,21.77
2019-02-18T17:03:04.532Z,19.82
2019-02-18T17:05:34.320Z,22.13
2019-02-18T17:08:04.392Z,21.68
2019-02-18T17:10:34.507Z,21.40
2019-02-18T17:13:08.187Z,21.20
2019-02-18T17:15:35.862Z,20.32
2019-02-18T17:18:06.509Z,21.20
2019-02-18T17:20:36.271Z,26.45
2019-02-18T17:23:05.963Z,20.77
2019-02-18T17:25:35.723Z,31.48
2019-02-18T17:28:05.613Z,25.20
2019-02-18T17:30:35.402Z,26.90
2019-02-18T17:33:05.194Z,25.45
2019-02-18T17:35:36.095Z,27.55
2019-02-18T17:38:06.343Z,31.87
2019-02-18T17:40:36.078Z,31.95
2019-02-18T17:43:05.815Z,32.65
2019-02-18T17:45:35.522Z,31.60
2019-02-18T17:48:05.275Z,36.63
2019-02-18T17:50:34.977Z,34.92
2019-02-18T17:53:05.062Z,36.73
2019-02-18T17:55:34.753Z,36.15
2019-02-18T17:58:04.662Z,38.33
2019-02-18T18:00:35.101Z,38.90
2019-02-18T18:03:04.955Z,39.27
2019-02-18T18:05:35.094Z,38.15
2019-02-18T18:08:05.228Z,40.23
2019-02-18T18:10:35.003Z,42.20
2019-02-18T18:13:04.720Z,40.80
2019-02-18T18:15:34.401Z,39.42
2019-02-18T18:18:04.112Z,43.75
2019-02-18T18:20:33.767Z,45.28
2019-02-18T18:23:03.518Z,42.13
2019-02-18T18:25:33.162Z,44.53
2019-02-18T18:28:02.866Z,42.98
2019-02-18T18:30:32.550Z,41.73
2019-02-18T18:33:02.326Z,44.95
2019-02-18T18:35:32.061Z,48.92
2019-02-18T18:38:01.789Z,44.55
2019-02-18T18:40:31.495Z,47.17
2019-02-18T18:43:01.311Z,42.08
2019-02-18T18:45:31.359Z,45.12
2019-02-18T18:48:01.157Z,44.80
2019-02-18T18:50:31.288Z,40.63
2019-02-18T18:53:01.006Z,44.77
2019-02-18T18:55:30.729Z,45.75
2019-02-18T18:58:00.452Z,42.13
2019-02-18T19:00:30.139Z,42.62
2019-02-18T19:03:02.738Z,46.10
2019-02-18T19:05:32.508Z,41.50
2019-02-18T19:08:02.159Z,44.77
2019-02-18T19:10:34.670Z,46.70
2019-02-18T19:13:04.499Z,44.00
2019-02-18T19:15:34.243Z,46.50
2019-02-18T19:18:03.939Z,45.03
2019-02-18T19:20:33.656Z,48.30
2019-02-18T19:23:03.336Z,47.53
2019-02-18T19:25:33.058Z,48.42
2019-02-18T19:28:02.881Z,51.23
2019-02-18T19:30:33.115Z,50.60
2019-02-18T19:33:02.837Z,48.45
2019-02-18T19:35:32.601Z,47.35
2019-02-18T19:38:02.375Z,44.67
2019-02-18T19:40:32.245Z,50.58
2019-02-18T19:43:02.035Z,50.08
2019-02-18T19:45:32.081Z,51.37
2019-02-18T19:48:05.102Z,50.75
2019-02-18T19:50:34.935Z,51.48
2019-02-18T19:53:04.639Z,53.02
2019-02-18T19:55:34.427Z,50.75
2019-02-18T19:58:04.058Z,57.88
2019-02-18T20:00:33.771Z,54.50
2019-02-18T20:03:03.718Z,52.48
2019-02-18T20:05:33.398Z,54.15
2019-02-18T20:08:03.532Z,52.30
2019-02-18T20:10:33.282Z,57.53
2019-02-18T20:13:04.149Z,53.25
2019-02-18T20:15:34.019Z,56.23
2019-02-18T20:18:03.704Z,56.83
2019-02-18T20:20:33.431Z,54.60
2019-02-18T20:23:03.243Z,57.55
2019-02-18T20:25:35.648Z,61.50
2019-02-18T20:28:05.605Z,64.07
2019-02-18T20:30:35.458Z,60.40
2019-02-18T20:33:05.260Z,60.17
2019-02-18T20:35:35.001Z,55.35
2019-02-18T20:38:05.110Z,57.17
2019-02-18T20:40:37.056Z,59.75
2019-02-18T20:43:06.727Z,58.28
2019-02-18T20:45:36.478Z,56.30
2019-02-18T20:48:06.164Z,60.92
2019-02-18T20:50:35.930Z,56.83
2019-02-18T20:53:05.693Z,58.02
2019-02-18T20:55:35.570Z,60.35
2019-02-18T20:58:05.406Z,57.33
2019-02-18T21:00:35.122Z,57.58
2019-02-18T21:03:04.859Z,55.55
2019-02-18T21:05:34.966Z,53.75
2019-02-18T21:08:04.791Z,53.78
2019-02-18T21:10:34.463Z,56.80
2019-02-18T21:13:04.200Z,54.90
2019-02-18T21:15:34.135Z,57.27
2019-02-18T21:18:03.941Z,51.50
2019-02-18T21:20:33.968Z,48.52
2019-02-18T21:23:03.838Z,53.23
2019-02-18T21:25:34.244Z,52.30
2019-02-18T21:28:03.952Z,55.90
2019-02-18T21:30:33.630Z,54.90
2019-02-18T21:33:03.499Z,54.73
2019-02-18T21:35:33.181Z,56.83
2019-02-18T21:38:02.902Z,58.85
2019-02-18T21:40:32.550Z,55.45
2019-02-18T21:43:02.273Z,53.65
2019-02-18T21:45:31.955Z,57.38
2019-02-18T21:48:02.207Z,55.52
2019-02-18T21:50:32.077Z,56.05
2019-02-18T21:53:01.979Z,59.03
2019-02-18T21:55:31.669Z,60.45
2019-02-18T21:58:01.381Z,63.28
2019-02-18T22:00:31.036Z,60.63
2019-02-18T22:03:01.042Z,56.08
2019-02-18T22:05:30.833Z,53.48
2019-02-18T22:08:00.623Z,55.05
2019-02-18T22:10:30.333Z,52.67
2019-02-18T22:13:00.199Z,52.03
2019-02-18T22:15:29.962Z,50.83
2019-02-18T22:18:00.078Z,52.98
2019-02-18T22:20:29.879Z,56.40
2019-02-18T22:22:59.797Z,54.15
2019-02-18T22:25:29.542Z,54.25
2019-02-18T22:27:59.368Z,52.08
2019-02-18T22:30:29.266Z,52.48
2019-02-18T22:32:59.494Z,48.58
2019-02-18T22:35:29.272Z,45.12
2019-02-18T22:37:59.064Z,47.85
2019-02-18T22:40:28.857Z,50.03
2019-02-18T22:42:58.567Z,45.95
2019-02-18T22:45:28.419Z,47.70
2019-02-18T22:47:58.762Z,51.50
2019-02-18T22:50:28.408Z,51.68
2019-02-18T22:52:58.141Z,50.20
2019-02-18T22:55:27.857Z,50.75
2019-02-18T22:57:57.579Z,49.38
2019-02-18T23:00:55.659Z,47.55
2019-02-18T23:03:25.523Z,46.25
2019-02-18T23:05:55.357Z,46.48
2019-02-18T23:08:25.150Z,45.75
2019-02-18T23:10:54.955Z,42.17
2019-02-18T23:13:25.098Z,42.33
2019-02-18T23:15:56.395Z,43.30
2019-02-18T23:18:27.278Z,43.17
2019-02-18T23:20:56.961Z,42.35
2019-02-18T23:23:26.685Z,40.73
2019-02-18T23:25:56.368Z,39.92
2019-02-18T23:28:26.078Z,45.15
2019-02-18T23:30:55.819Z,44.20
2019-02-18T23:33:25.538Z,40.73
2019-02-18T23:35:55.316Z,38.92
2019-02-18T23:38:25.032Z,36.60
2019-02-18T23:40:55.439Z,41.42
2019-02-18T23:43:25.230Z,41.30
2019-02-18T23:45:55.980Z,40.50
2019-02-18T23:48:25.739Z,43.75
2019-02-18T23:50:55.483Z,45.12
2019-02-18T23:53:25.217Z,42.05
2019-02-18T23:55:54.963Z,42.85
2019-02-18T23:58:24.686Z,43.78
